createdAt,value
2018-12-06T00:00:45.650Z,856.72
2018-12-06T00:01:45.523Z,856.68
2018-12-06T00:02:45.390Z,856.71
2018-12-06T00:03:45.263Z,856.66
2018-12-06T00:04:45.131Z,856.67
2018-12-06T00:05:45.001Z,856.66
2018-12-06T00:06:44.873Z,856.64
2018-12-06T00:07:44.742Z,856.65
2018-12-06T00:08:44.614Z,856.64
2018-12-06T00:09:44.483Z,856.62
2018-12-06T00:10:44.353Z,856.61
2018-12-06T00:11:44.224Z,856.58
2018-12-06T00:12:44.093Z,856.54
2018-12-06T00:13:43.965Z,856.52
2018-12-06T00:14:43.834Z,856.52
2018-12-06T00:15:43.706Z,856.53
2018-12-06T00:16:43.576Z,856.49
2018-12-06T00:17:43.447Z,856.47
2018-12-06T00:18:43.323Z,856.48
2018-12-06T00:19:43.189Z,856.51
2018-12-06T00:20:43.060Z,856.44
2018-12-06T00:21:42.930Z,856.46
2018-12-06T00:22:42.798Z,856.45
2018-12-06T00:23:42.670Z,856.40
2018-12-06T00:24:42.541Z,856.41
2018-12-06T00:25:42.414Z,856.37
2018-12-06T00:26:42.280Z,856.39
2018-12-06T00:27:42.155Z,856.41
2018-12-06T00:28:42.023Z,856.41
2018-12-06T00:29:41.896Z,856.42
2018-12-06T00:30:41.767Z,856.41
2018-12-06T00:31:41.633Z,856.44
2018-12-06T00:32:41.508Z,856.42
2018-12-06T00:33:41.373Z,856.44
2018-12-06T00:34:41.244Z,856.40
2018-12-06T00:35:41.114Z,856.41
2018-12-06T00:36:40.985Z,856.40
2018-12-06T00:37:40.856Z,856.38
2018-12-06T00:38:40.726Z,856.36
2018-12-06T00:39:40.597Z,856.42
2018-12-06T00:40:40.467Z,856.44
2018-12-06T00:41:40.338Z,856.42
2018-12-06T00:42:40.208Z,856.47
2018-12-06T00:43:40.078Z,856.45
2018-12-06T00:44:39.949Z,856.45
2018-12-06T00:45:39.820Z,856.44
2018-12-06T00:46:39.704Z,856.48
2018-12-06T00:47:39.557Z,856.47
2018-12-06T00:48:39.430Z,856.51
2018-12-06T00:49:39.300Z,856.52
2018-12-06T00:50:39.169Z,856.51
2018-12-06T00:51:39.040Z,856.52
2018-12-06T00:52:38.912Z,856.52
2018-12-06T00:53:38.782Z,856.51
2018-12-06T00:54:38.652Z,856.57
2018-12-06T00:55:38.521Z,856.55
2018-12-06T00:56:38.392Z,856.55
2018-12-06T00:57:38.276Z,856.49
2018-12-06T00:58:38.136Z,856.51
2018-12-06T00:59:38.002Z,856.49
2018-12-06T01:00:37.874Z,856.51
2018-12-06T01:01:37.748Z,856.50
2018-12-06T01:02:37.616Z,856.48
2018-12-06T01:03:37.489Z,856.50
2018-12-06T01:04:37.357Z,856.46
2018-12-06T01:05:37.228Z,856.48
2018-12-06T01:06:37.100Z,856.45
2018-12-06T01:07:36.968Z,856.47
2018-12-06T01:08:36.840Z,856.46
2018-12-06T01:09:36.712Z,856.44
2018-12-06T01:10:36.580Z,856.48
2018-12-06T01:11:36.451Z,856.44
2018-12-06T01:12:36.323Z,856.43
2018-12-06T01:13:36.197Z,856.43
2018-12-06T01:14:36.063Z,856.41
2018-12-06T01:15:35.937Z,856.38
2018-12-06T01:16:35.804Z,856.41
2018-12-06T01:17:35.676Z,856.39
2018-12-06T01:18:35.546Z,856.35
2018-12-06T01:19:35.416Z,856.34
2018-12-06T01:20:35.288Z,856.32
2018-12-06T01:21:35.157Z,856.33
2018-12-06T01:22:35.032Z,856.36
2018-12-06T01:23:34.900Z,856.28
2018-12-06T01:24:34.767Z,856.36
2018-12-06T01:25:34.640Z,856.33
2018-12-06T01:26:34.512Z,856.29
2018-12-06T01:27:34.380Z,856.27
2018-12-06T01:28:34.252Z,856.30
2018-12-06T01:29:34.123Z,856.26
2018-12-06T01:30:33.991Z,856.25
2018-12-06T01:31:33.861Z,856.21
2018-12-06T01:32:33.732Z,856.20
2018-12-06T01:33:33.604Z,856.21
2018-12-06T01:34:33.473Z,856.20
2018-12-06T01:35:33.343Z,856.23
2018-12-06T01:36:33.214Z,856.20
2018-12-06T01:37:33.085Z,856.19
2018-12-06T01:38:32.958Z,856.15
2018-12-06T01:39:32.824Z,856.16
2018-12-06T01:40:32.696Z,856.12
2018-12-06T01:41:32.568Z,856.16
2018-12-06T01:42:32.438Z,856.13
2018-12-06T01:43:32.306Z,856.10
2018-12-06T01:44:32.176Z,856.12
2018-12-06T01:45:32.126Z,856.13
2018-12-06T01:46:31.917Z,856.14
2018-12-06T01:47:31.789Z,856.09
2018-12-06T01:48:31.658Z,856.10
2018-12-06T01:49:31.529Z,856.08
2018-12-06T01:50:31.400Z,856.10
2018-12-06T01:51:31.272Z,856.11
2018-12-06T01:52:31.141Z,856.14
2018-12-06T01:53:31.014Z,856.14
2018-12-06T01:54:30.880Z,856.14
2018-12-06T01:55:30.751Z,856.11
2018-12-06T01:56:30.621Z,856.16
2018-12-06T01:57:30.492Z,856.09
2018-12-06T01:58:30.364Z,856.09
2018-12-06T01:59:30.231Z,856.10
2018-12-06T02:00:30.103Z,856.09
2018-12-06T02:01:29.975Z,856.04
2018-12-06T02:02:29.844Z,856.08
2018-12-06T02:03:29.714Z,856.00
2018-12-06T02:04:29.585Z,855.97
2018-12-06T02:05:29.461Z,855.99
2018-12-06T02:06:29.326Z,855.99
2018-12-06T02:07:29.196Z,856.02
2018-12-06T02:08:29.073Z,855.97
2018-12-06T02:09:28.939Z,855.95
2018-12-06T02:10:28.808Z,855.96
2018-12-06T02:11:28.676Z,855.92
2018-12-06T02:12:28.548Z,855.93
2018-12-06T02:13:28.417Z,855.94
2018-12-06T02:14:28.287Z,855.94
2018-12-06T02:15:28.159Z,855.88
2018-12-06T02:16:28.028Z,855.90
2018-12-06T02:17:27.899Z,855.86
2018-12-06T02:18:27.769Z,855.86
2018-12-06T02:19:27.640Z,855.82
2018-12-06T02:20:27.510Z,855.81
2018-12-06T02:21:27.380Z,855.81
2018-12-06T02:22:27.252Z,855.82
2018-12-06T02:23:27.126Z,855.83
2018-12-06T02:24:26.988Z,855.79
2018-12-06T02:25:26.859Z,855.82
2018-12-06T02:26:26.728Z,855.82
2018-12-06T02:27:26.598Z,855.82
2018-12-06T02:28:26.471Z,855.86
2018-12-06T02:29:26.345Z,855.81
2018-12-06T02:30:26.212Z,855.81
2018-12-06T02:31:26.083Z,855.81
2018-12-06T02:32:25.950Z,855.81
2018-12-06T02:33:25.820Z,855.81
2018-12-06T02:34:25.689Z,855.86
2018-12-06T02:35:25.562Z,855.84
2018-12-06T02:36:25.430Z,855.85
2018-12-06T02:37:25.301Z,855.85
2018-12-06T02:38:25.169Z,855.83
2018-12-06T02:39:25.040Z,855.88
2018-12-06T02:40:24.908Z,855.90
2018-12-06T02:41:24.782Z,855.84
2018-12-06T02:42:24.648Z,855.91
2018-12-06T02:43:24.519Z,855.85
2018-12-06T02:44:24.388Z,855.90
2018-12-06T02:45:24.272Z,855.92
2018-12-06T02:46:24.131Z,855.95
2018-12-06T02:47:23.998Z,855.94
2018-12-06T02:48:23.880Z,855.94
2018-12-06T02:49:23.739Z,856.00
2018-12-06T02:50:23.608Z,855.97
2018-12-06T02:51:23.484Z,855.99
2018-12-06T02:52:23.349Z,856.00
2018-12-06T02:53:23.219Z,855.96
2018-12-06T02:54:23.091Z,855.96
2018-12-06T02:55:22.957Z,855.96
2018-12-06T02:56:22.829Z,855.96
2018-12-06T02:57:22.698Z,855.92
2018-12-06T02:58:22.568Z,855.93
2018-12-06T02:59:22.437Z,855.97
2018-12-06T03:00:22.308Z,855.95
2018-12-06T03:01:22.181Z,855.93
2018-12-06T03:02:22.047Z,855.93
2018-12-06T03:03:21.918Z,855.93
2018-12-06T03:04:21.789Z,855.95
2018-12-06T03:05:21.660Z,855.94
2018-12-06T03:06:21.529Z,855.94
2018-12-06T03:07:21.399Z,855.93
2018-12-06T03:08:21.268Z,855.92
2018-12-06T03:09:21.139Z,855.89
2018-12-06T03:10:21.011Z,855.94
2018-12-06T03:11:20.882Z,855.89
2018-12-06T03:12:20.751Z,855.89
2018-12-06T03:13:20.621Z,855.83
2018-12-06T03:14:20.492Z,855.86
2018-12-06T03:15:20.361Z,855.85
2018-12-06T03:16:20.232Z,855.86
2018-12-06T03:17:20.106Z,855.84
2018-12-06T03:18:19.975Z,855.83
2018-12-06T03:19:19.845Z,855.80
2018-12-06T03:20:19.717Z,855.78
2018-12-06T03:21:19.584Z,855.76
2018-12-06T03:22:19.456Z,855.76
2018-12-06T03:23:19.325Z,855.73
2018-12-06T03:24:19.198Z,855.71
2018-12-06T03:25:19.068Z,855.67
2018-12-06T03:26:18.935Z,855.62
2018-12-06T03:27:18.807Z,855.64
2018-12-06T03:28:18.678Z,855.59
2018-12-06T03:29:18.547Z,855.60
2018-12-06T03:30:18.421Z,855.58
2018-12-06T03:31:18.291Z,855.62
2018-12-06T03:32:18.168Z,855.62
2018-12-06T03:33:18.041Z,855.68
2018-12-06T03:34:17.900Z,855.65
2018-12-06T03:35:17.770Z,855.72
2018-12-06T03:36:17.640Z,855.70
2018-12-06T03:37:17.511Z,855.68
2018-12-06T03:38:17.388Z,855.66
2018-12-06T03:39:17.250Z,855.71
2018-12-06T03:40:17.121Z,855.69
2018-12-06T03:41:16.997Z,855.71
2018-12-06T03:42:16.862Z,855.71
2018-12-06T03:43:16.731Z,855.72
2018-12-06T03:44:16.629Z,855.73
2018-12-06T03:45:16.474Z,855.75
2018-12-06T03:46:16.343Z,855.72
2018-12-06T03:47:16.211Z,855.75
2018-12-06T03:48:16.082Z,855.75
2018-12-06T03:49:15.951Z,855.74
2018-12-06T03:50:15.825Z,855.72
2018-12-06T03:51:15.696Z,855.76
2018-12-06T03:52:15.566Z,855.74
2018-12-06T03:53:15.434Z,855.73
2018-12-06T03:54:15.303Z,855.77
2018-12-06T03:55:15.176Z,855.74
2018-12-06T03:56:15.049Z,855.77
2018-12-06T03:57:14.915Z,855.74
2018-12-06T03:58:14.785Z,855.72
2018-12-06T03:59:14.666Z,855.72
2018-12-06T04:00:14.527Z,855.70
2018-12-06T04:01:14.399Z,855.74
2018-12-06T04:02:14.266Z,855.75
2018-12-06T04:03:14.138Z,855.68
2018-12-06T04:04:14.008Z,855.69
2018-12-06T04:05:13.879Z,855.68
2018-12-06T04:06:13.750Z,855.69
2018-12-06T04:07:13.621Z,855.68
2018-12-06T04:08:13.488Z,855.71
2018-12-06T04:09:13.357Z,855.69
2018-12-06T04:10:13.236Z,855.68
2018-12-06T04:11:13.099Z,855.71
2018-12-06T04:12:12.970Z,855.69
2018-12-06T04:13:12.841Z,855.68
2018-12-06T04:14:12.712Z,855.71
2018-12-06T04:15:12.577Z,855.71
2018-12-06T04:16:12.448Z,855.73
2018-12-06T04:17:12.319Z,855.74
2018-12-06T04:18:12.191Z,855.72
2018-12-06T04:19:12.059Z,855.71
2018-12-06T04:20:11.934Z,855.70
2018-12-06T04:21:11.800Z,855.70
2018-12-06T04:22:11.673Z,855.66
2018-12-06T04:23:11.540Z,855.68
2018-12-06T04:24:11.408Z,855.67
2018-12-06T04:25:11.284Z,855.66
2018-12-06T04:26:11.149Z,855.68
2018-12-06T04:27:11.023Z,855.68
2018-12-06T04:28:10.891Z,855.65
2018-12-06T04:29:10.761Z,855.65
2018-12-06T04:30:10.631Z,855.64
2018-12-06T04:31:10.504Z,855.65
2018-12-06T04:32:10.369Z,855.59
2018-12-06T04:33:10.244Z,855.60
2018-12-06T04:34:10.111Z,855.64
2018-12-06T04:35:09.982Z,855.62
2018-12-06T04:36:09.852Z,855.63
2018-12-06T04:37:09.724Z,855.61
2018-12-06T04:38:09.593Z,855.62
2018-12-06T04:39:09.464Z,855.63
2018-12-06T04:40:09.336Z,855.60
2018-12-06T04:41:09.205Z,855.58
2018-12-06T04:42:09.079Z,855.58
2018-12-06T04:43:08.944Z,855.57
2018-12-06T04:44:08.817Z,855.62
2018-12-06T04:45:08.689Z,855.62
2018-12-06T04:46:08.556Z,855.63
2018-12-06T04:47:08.428Z,855.65
2018-12-06T04:48:08.298Z,855.63
2018-12-06T04:49:08.169Z,855.60
2018-12-06T04:50:08.053Z,855.60
2018-12-06T04:51:07.908Z,855.61
2018-12-06T04:52:07.778Z,855.64
2018-12-06T04:53:07.648Z,855.65
2018-12-06T04:54:07.519Z,855.65
2018-12-06T04:55:07.390Z,855.64
2018-12-06T04:56:07.260Z,855.66
2018-12-06T04:57:07.131Z,855.66
2018-12-06T04:58:06.999Z,855.66
2018-12-06T04:59:06.872Z,855.69
2018-12-06T05:00:06.742Z,855.70
2018-12-06T05:01:06.613Z,855.72
2018-12-06T05:02:06.483Z,855.67
2018-12-06T05:03:06.352Z,855.68
2018-12-06T05:04:06.224Z,855.72
2018-12-06T05:05:06.093Z,855.70
2018-12-06T05:06:05.964Z,855.72
2018-12-06T05:07:05.836Z,855.68
2018-12-06T05:08:05.704Z,855.72
2018-12-06T05:09:05.574Z,855.73
2018-12-06T05:10:05.522Z,855.73
2018-12-06T05:11:05.322Z,855.70
2018-12-06T05:12:05.186Z,855.76
2018-12-06T05:13:05.058Z,855.74
2018-12-06T05:14:04.926Z,855.76
2018-12-06T05:15:04.797Z,855.78
2018-12-06T05:16:04.667Z,855.78
2018-12-06T05:17:04.666Z,855.76
2018-12-06T05:18:04.407Z,855.79
2018-12-06T05:19:04.279Z,855.79
2018-12-06T05:20:04.149Z,855.80
2018-12-06T05:21:04.020Z,855.85
2018-12-06T05:22:03.890Z,855.84
2018-12-06T05:23:03.760Z,855.88
2018-12-06T05:24:03.630Z,855.91
2018-12-06T05:25:03.501Z,855.93
2018-12-06T05:26:03.370Z,855.97
2018-12-06T05:27:03.241Z,855.99
2018-12-06T05:28:03.113Z,856.00
2018-12-06T05:29:02.985Z,855.99
2018-12-06T05:30:02.947Z,856.05
2018-12-06T05:31:02.723Z,856.06
2018-12-06T05:32:02.594Z,856.09
2018-12-06T05:33:02.465Z,856.09
2018-12-06T05:34:02.334Z,856.11
2018-12-06T05:35:02.215Z,856.14
2018-12-06T05:36:02.077Z,856.13
2018-12-06T05:37:01.963Z,856.13
2018-12-06T05:38:01.818Z,856.11
2018-12-06T05:39:01.688Z,856.12
2018-12-06T05:40:01.559Z,856.10
2018-12-06T05:41:01.429Z,856.08
2018-12-06T05:42:01.302Z,856.10
2018-12-06T05:43:01.169Z,856.08
2018-12-06T05:44:01.041Z,856.18
2018-12-06T05:45:00.911Z,856.21
2018-12-06T05:46:00.806Z,856.25
2018-12-06T05:47:00.652Z,856.19
2018-12-06T05:48:00.522Z,856.20
2018-12-06T05:49:00.394Z,856.23
2018-12-06T05:50:00.267Z,856.22
2018-12-06T05:51:00.133Z,856.20
2018-12-06T05:52:00.009Z,856.15
2018-12-06T05:52:59.876Z,856.18
2018-12-06T05:53:59.745Z,856.20
2018-12-06T05:54:59.619Z,856.19
2018-12-06T05:55:59.487Z,856.26
2018-12-06T05:56:59.358Z,856.21
2018-12-06T05:57:59.229Z,856.25
2018-12-06T05:58:59.097Z,856.27
2018-12-06T05:59:58.967Z,856.29
2018-12-06T06:00:58.840Z,856.31
2018-12-06T06:01:58.709Z,856.28
2018-12-06T06:02:58.579Z,856.34
2018-12-06T06:03:58.452Z,856.32
2018-12-06T06:04:58.321Z,856.32
2018-12-06T06:05:58.190Z,856.36
2018-12-06T06:06:58.064Z,856.33
2018-12-06T06:07:57.932Z,856.33
2018-12-06T06:08:57.801Z,856.36
2018-12-06T06:09:57.673Z,856.32
2018-12-06T06:10:57.544Z,856.34
2018-12-06T06:11:57.413Z,856.35
2018-12-06T06:12:57.285Z,856.36
2018-12-06T06:13:57.157Z,856.39
2018-12-06T06:14:57.027Z,856.39
2018-12-06T06:15:56.894Z,856.42
2018-12-06T06:16:56.766Z,856.44
2018-12-06T06:17:56.638Z,856.41
2018-12-06T06:18:56.507Z,856.42
2018-12-06T06:19:56.377Z,856.42
2018-12-06T06:20:56.249Z,856.41
2018-12-06T06:21:56.121Z,856.47
2018-12-06T06:22:55.993Z,856.47
2018-12-06T06:23:55.859Z,856.45
2018-12-06T06:24:55.731Z,856.49
2018-12-06T06:25:55.599Z,856.49
2018-12-06T06:26:55.471Z,856.50
2018-12-06T06:27:55.342Z,856.55
2018-12-06T06:28:55.213Z,856.52
2018-12-06T06:29:55.083Z,856.54
2018-12-06T06:30:54.953Z,856.56
2018-12-06T06:31:54.824Z,856.56
2018-12-06T06:32:54.695Z,856.53
2018-12-06T06:33:54.565Z,856.55
2018-12-06T06:34:54.435Z,856.57
2018-12-06T06:35:54.304Z,856.56
2018-12-06T06:36:54.187Z,856.55
2018-12-06T06:37:54.058Z,856.56
2018-12-06T06:38:53.917Z,856.57
2018-12-06T06:39:53.790Z,856.59
2018-12-06T06:40:53.661Z,856.60
2018-12-06T06:41:53.527Z,856.61
2018-12-06T06:42:53.400Z,856.59
2018-12-06T06:43:53.277Z,856.61
2018-12-06T06:44:53.143Z,856.62
2018-12-06T06:45:53.013Z,856.60
2018-12-06T06:46:52.883Z,856.60
2018-12-06T06:47:52.754Z,856.58
2018-12-06T06:48:52.624Z,856.60
2018-12-06T06:49:52.494Z,856.62
2018-12-06T06:50:52.366Z,856.63
2018-12-06T06:51:52.237Z,856.65
2018-12-06T06:52:52.106Z,856.65
2018-12-06T06:53:51.977Z,856.66
2018-12-06T06:54:51.849Z,856.70
2018-12-06T06:55:51.720Z,856.73
2018-12-06T06:56:51.591Z,856.74
2018-12-06T06:57:51.459Z,856.75
2018-12-06T06:58:51.334Z,856.81
2018-12-06T06:59:51.201Z,856.78
2018-12-06T07:00:51.074Z,856.80
2018-12-06T07:01:50.942Z,856.83
2018-12-06T07:02:50.814Z,856.82
2018-12-06T07:03:50.685Z,856.85
2018-12-06T07:04:50.557Z,856.82
2018-12-06T07:05:50.425Z,856.83
2018-12-06T07:06:50.294Z,856.85
2018-12-06T07:07:50.167Z,856.84
2018-12-06T07:08:50.038Z,856.90
2018-12-06T07:09:49.906Z,856.89
2018-12-06T07:10:49.792Z,856.92
2018-12-06T07:11:49.647Z,856.92
2018-12-06T07:12:49.517Z,856.90
2018-12-06T07:13:49.388Z,856.94
2018-12-06T07:14:49.257Z,856.98
2018-12-06T07:15:49.129Z,856.95
2018-12-06T07:16:49.068Z,856.98
2018-12-06T07:17:48.869Z,856.95
2018-12-06T07:18:48.740Z,856.99
2018-12-06T07:19:48.612Z,857.02
2018-12-06T07:20:48.480Z,857.03
2018-12-06T07:21:48.353Z,857.06
2018-12-06T07:22:48.222Z,857.08
2018-12-06T07:23:48.092Z,857.10
2018-12-06T07:24:47.965Z,857.10
2018-12-06T07:25:47.834Z,857.07
2018-12-06T07:26:47.763Z,857.12
2018-12-06T07:27:47.576Z,857.11
2018-12-06T07:28:47.445Z,857.13
2018-12-06T07:29:48.566Z,857.18
2018-12-06T07:30:47.189Z,857.16
2018-12-06T07:31:47.059Z,857.15
2018-12-06T07:32:46.929Z,857.16
2018-12-06T07:33:46.799Z,857.17
2018-12-06T07:34:46.669Z,857.17
2018-12-06T07:35:46.539Z,857.20
2018-12-06T07:36:46.410Z,857.19
2018-12-06T07:37:46.281Z,857.16
2018-12-06T07:38:46.150Z,857.17
2018-12-06T07:39:46.023Z,857.18
2018-12-06T07:40:45.893Z,857.19
2018-12-06T07:41:45.762Z,857.21
2018-12-06T07:42:45.636Z,857.17
2018-12-06T07:43:45.502Z,857.23
2018-12-06T07:44:45.373Z,857.20
2018-12-06T07:45:45.245Z,857.22
2018-12-06T07:46:45.119Z,857.21
2018-12-06T07:47:44.986Z,857.20
2018-12-06T07:48:44.858Z,857.24
2018-12-06T07:49:44.728Z,857.21
2018-12-06T07:50:44.597Z,857.18
2018-12-06T07:51:44.469Z,857.16
2018-12-06T07:52:44.339Z,857.19
2018-12-06T07:53:44.209Z,857.18
2018-12-06T07:54:44.082Z,857.20
2018-12-06T07:55:43.949Z,857.22
2018-12-06T07:56:43.822Z,857.19
2018-12-06T07:57:43.692Z,857.23
2018-12-06T07:58:43.561Z,857.21
2018-12-06T07:59:43.433Z,857.21
2018-12-06T08:00:43.304Z,857.23
2018-12-06T08:01:43.173Z,857.24
2018-12-06T08:02:43.045Z,857.25
2018-12-06T08:03:42.921Z,857.22
2018-12-06T08:04:42.789Z,857.29
2018-12-06T08:05:42.657Z,857.29
2018-12-06T08:06:42.527Z,857.30
2018-12-06T08:07:42.397Z,857.33
2018-12-06T08:08:42.269Z,857.32
2018-12-06T08:09:42.138Z,857.30
2018-12-06T08:10:42.009Z,857.36
2018-12-06T08:11:41.883Z,857.32
2018-12-06T08:12:41.753Z,857.32
2018-12-06T08:13:41.622Z,857.32
2018-12-06T08:14:41.501Z,857.34
2018-12-06T08:15:41.364Z,857.32
2018-12-06T08:16:41.235Z,857.33
2018-12-06T08:17:41.103Z,857.30
2018-12-06T08:18:40.976Z,857.34
2018-12-06T08:19:40.848Z,857.32
2018-12-06T08:20:40.719Z,857.36
2018-12-06T08:21:40.589Z,857.34
2018-12-06T08:22:40.461Z,857.34
2018-12-06T08:23:40.331Z,857.32
2018-12-06T08:24:40.202Z,857.33
2018-12-06T08:25:40.081Z,857.34
2018-12-06T08:26:39.943Z,857.32
2018-12-06T08:27:39.814Z,857.33
2018-12-06T08:28:39.686Z,857.38
2018-12-06T08:29:39.554Z,857.37
2018-12-06T08:30:39.428Z,857.38
2018-12-06T08:31:39.296Z,857.39
2018-12-06T08:32:39.166Z,857.39
2018-12-06T08:33:39.036Z,857.37
2018-12-06T08:34:38.908Z,857.40
2018-12-06T08:35:38.779Z,857.42
2018-12-06T08:36:38.705Z,857.42
2018-12-06T08:37:38.520Z,857.37
2018-12-06T08:38:38.393Z,857.40
2018-12-06T08:39:38.262Z,857.44
2018-12-06T08:40:38.143Z,857.48
2018-12-06T08:41:38.004Z,857.50
2018-12-06T08:42:45.442Z,857.52
2018-12-06T08:43:37.744Z,857.50
2018-12-06T08:44:37.615Z,857.48
2018-12-06T08:45:37.486Z,857.51
2018-12-06T08:46:37.358Z,857.52
2018-12-06T08:47:37.237Z,857.55
2018-12-06T08:48:37.099Z,857.57
2018-12-06T08:49:36.968Z,857.58
2018-12-06T08:50:36.840Z,857.56
2018-12-06T08:51:36.711Z,857.59
2018-12-06T08:52:36.584Z,857.59
2018-12-06T08:53:36.477Z,857.61
2018-12-06T08:54:36.321Z,857.63
2018-12-06T08:55:36.194Z,857.65
2018-12-06T08:56:36.073Z,857.67
2018-12-06T08:57:35.935Z,857.69
2018-12-06T08:58:35.804Z,857.72
2018-12-06T08:59:35.676Z,857.75
2018-12-06T09:00:35.552Z,857.74
2018-12-06T09:01:35.418Z,857.78
2018-12-06T09:02:35.289Z,857.79
2018-12-06T09:03:35.159Z,857.79
2018-12-06T09:04:35.031Z,857.79
2018-12-06T09:05:34.900Z,857.82
2018-12-06T09:06:34.773Z,857.85
2018-12-06T09:07:34.642Z,857.86
2018-12-06T09:08:34.515Z,857.88
2018-12-06T09:09:34.385Z,857.88
2018-12-06T09:10:34.258Z,857.89
2018-12-06T09:11:34.126Z,857.94
2018-12-06T09:12:33.998Z,857.97
2018-12-06T09:13:33.875Z,857.98
2018-12-06T09:14:33.742Z,857.99
2018-12-06T09:15:33.612Z,858.02
2018-12-06T09:16:33.481Z,858.07
2018-12-06T09:17:33.354Z,858.08
2018-12-06T09:18:33.223Z,858.15
2018-12-06T09:19:33.092Z,858.12
2018-12-06T09:20:32.966Z,858.16
2018-12-06T09:21:32.837Z,858.13
2018-12-06T09:22:32.720Z,858.19
2018-12-06T09:23:32.577Z,858.15
2018-12-06T09:24:32.448Z,858.15
2018-12-06T09:25:32.316Z,858.17
2018-12-06T09:26:32.189Z,858.19
2018-12-06T09:27:32.061Z,858.21
2018-12-06T09:28:31.932Z,858.22
2018-12-06T09:29:31.800Z,858.25
2018-12-06T09:30:31.677Z,858.27
2018-12-06T09:31:31.542Z,858.30
2018-12-06T09:32:31.411Z,858.30
2018-12-06T09:33:31.283Z,858.31
2018-12-06T09:34:31.156Z,858.32
2018-12-06T09:35:31.025Z,858.32
2018-12-06T09:36:30.895Z,858.39
2018-12-06T09:37:30.766Z,858.35
2018-12-06T09:38:30.637Z,858.37
2018-12-06T09:39:30.508Z,858.36
2018-12-06T09:40:30.377Z,858.38
2018-12-06T09:41:30.251Z,858.34
2018-12-06T09:42:30.117Z,858.35
2018-12-06T09:43:29.990Z,858.37
2018-12-06T09:44:29.859Z,858.36
2018-12-06T09:45:29.730Z,858.40
2018-12-06T09:46:29.601Z,858.37
2018-12-06T09:47:29.473Z,858.37
2018-12-06T09:48:29.341Z,858.43
2018-12-06T09:49:29.212Z,858.45
2018-12-06T09:50:29.086Z,858.42
2018-12-06T09:51:28.954Z,858.46
2018-12-06T09:52:28.825Z,858.42
2018-12-06T09:53:28.695Z,858.43
2018-12-06T09:54:28.568Z,858.40
2018-12-06T09:55:28.437Z,858.41
2018-12-06T09:56:28.310Z,858.43
2018-12-06T09:57:28.175Z,858.44
2018-12-06T09:58:28.048Z,858.43
2018-12-06T09:59:27.920Z,858.40
2018-12-06T10:00:27.792Z,858.34
2018-12-06T10:01:27.661Z,858.32
2018-12-06T10:02:27.531Z,858.30
2018-12-06T10:03:27.405Z,858.27
2018-12-06T10:04:27.274Z,858.29
2018-12-06T10:05:27.143Z,858.29
2018-12-06T10:06:27.016Z,858.28
2018-12-06T10:07:26.888Z,858.28
2018-12-06T10:08:26.759Z,858.25
2018-12-06T10:09:26.631Z,858.26
2018-12-06T10:10:26.500Z,858.24
2018-12-06T10:11:26.442Z,858.22
2018-12-06T10:12:26.245Z,858.19
2018-12-06T10:13:26.120Z,858.19
2018-12-06T10:14:25.988Z,858.18
2018-12-06T10:15:25.861Z,858.17
2018-12-06T10:16:25.731Z,858.17
2018-12-06T10:17:25.603Z,858.19
2018-12-06T10:18:25.474Z,858.16
2018-12-06T10:19:25.345Z,858.16
2018-12-06T10:20:25.219Z,858.19
2018-12-06T10:21:25.092Z,858.17
2018-12-06T10:22:24.961Z,858.18
2018-12-06T10:23:24.833Z,858.20
2018-12-06T10:24:24.707Z,858.21
2018-12-06T10:25:24.581Z,858.21
2018-12-06T10:26:24.457Z,858.22
2018-12-06T10:27:24.322Z,858.20
2018-12-06T10:28:24.196Z,858.23
2018-12-06T10:29:24.064Z,858.26
2018-12-06T10:30:23.938Z,858.26
2018-12-06T10:31:23.812Z,858.22
2018-12-06T10:32:23.683Z,858.25
2018-12-06T10:33:23.555Z,858.23
2018-12-06T10:34:23.425Z,858.24
2018-12-06T10:35:23.297Z,858.23
2018-12-06T10:36:23.172Z,858.24
2018-12-06T10:37:23.045Z,858.25
2018-12-06T10:38:22.914Z,858.25
2018-12-06T10:39:22.786Z,858.28
2018-12-06T10:40:22.660Z,858.21
2018-12-06T10:41:22.528Z,858.21
2018-12-06T10:42:22.402Z,858.21
2018-12-06T10:43:22.274Z,858.22
2018-12-06T10:44:22.145Z,858.22
2018-12-06T10:45:22.015Z,858.23
2018-12-06T10:46:21.888Z,858.18
2018-12-06T10:47:21.761Z,858.20
2018-12-06T10:48:21.637Z,858.20
2018-12-06T10:49:21.503Z,858.18
2018-12-06T10:50:21.377Z,858.20
2018-12-06T10:51:21.262Z,858.20
2018-12-06T10:52:21.120Z,858.21
2018-12-06T10:53:20.991Z,858.23
2018-12-06T10:54:20.866Z,858.20
2018-12-06T10:55:20.737Z,858.24
2018-12-06T10:56:20.607Z,858.20
2018-12-06T10:57:20.479Z,858.19
2018-12-06T10:58:20.352Z,858.21
2018-12-06T10:59:20.244Z,858.21
2018-12-06T11:00:20.094Z,858.19
2018-12-06T11:01:19.973Z,858.21
2018-12-06T11:02:19.836Z,858.23
2018-12-06T11:03:19.710Z,858.23
2018-12-06T11:04:19.583Z,858.19
2018-12-06T11:05:19.470Z,858.19
2018-12-06T11:06:19.326Z,858.21
2018-12-06T11:07:19.195Z,858.19
2018-12-06T11:08:19.066Z,858.24
2018-12-06T11:09:18.939Z,858.25
2018-12-06T11:10:18.812Z,858.26
2018-12-06T11:11:18.681Z,858.31
2018-12-06T11:12:18.554Z,858.26
2018-12-06T11:13:18.425Z,858.23
2018-12-06T11:14:18.296Z,858.23
2018-12-06T11:15:18.170Z,858.19
2018-12-06T11:16:18.041Z,858.19
2018-12-06T11:17:17.911Z,858.16
2018-12-06T11:18:17.784Z,858.17
2018-12-06T11:19:17.655Z,858.15
2018-12-06T11:20:17.526Z,858.18
2018-12-06T11:21:17.399Z,858.19
2018-12-06T11:22:17.271Z,858.21
2018-12-06T11:23:17.142Z,858.24
2018-12-06T11:24:17.016Z,858.19
2018-12-06T11:25:16.887Z,858.18
2018-12-06T11:26:16.759Z,858.21
2018-12-06T11:27:16.630Z,858.24
2018-12-06T11:28:16.506Z,858.26
2018-12-06T11:29:16.378Z,858.30
2018-12-06T11:30:16.253Z,858.28
2018-12-06T11:31:16.124Z,858.28
2018-12-06T11:32:15.993Z,858.32
2018-12-06T11:33:15.867Z,858.29
2018-12-06T11:34:15.738Z,858.32
2018-12-06T11:35:15.613Z,858.34
2018-12-06T11:36:15.484Z,858.33
2018-12-06T11:37:15.355Z,858.35
2018-12-06T11:38:15.230Z,858.39
2018-12-06T11:39:15.104Z,858.38
2018-12-06T11:40:14.974Z,858.35
2018-12-06T11:41:14.847Z,858.34
2018-12-06T11:42:14.723Z,858.31
2018-12-06T11:43:14.592Z,858.33
2018-12-06T11:44:14.466Z,858.31
2018-12-06T11:45:14.339Z,858.37
2018-12-06T11:46:14.211Z,858.40
2018-12-06T11:47:14.084Z,858.45
2018-12-06T11:48:13.957Z,858.45
2018-12-06T11:49:13.829Z,858.44
2018-12-06T11:50:13.704Z,858.45
2018-12-06T11:51:13.575Z,858.40
2018-12-06T11:52:13.450Z,858.40
2018-12-06T11:53:13.322Z,858.39
2018-12-06T11:54:13.196Z,858.44
2018-12-06T11:55:13.078Z,858.36
2018-12-06T11:56:12.942Z,858.35
2018-12-06T11:57:12.814Z,858.36
2018-12-06T11:58:12.687Z,858.39
2018-12-06T11:59:12.560Z,858.42
2018-12-06T12:00:12.437Z,858.45
2018-12-06T12:01:12.312Z,858.48
2018-12-06T12:02:12.181Z,858.45
2018-12-06T12:03:12.051Z,858.47
2018-12-06T12:04:11.933Z,858.42
2018-12-06T12:05:11.799Z,858.43
2018-12-06T12:06:11.673Z,858.43
2018-12-06T12:07:11.545Z,858.40
2018-12-06T12:08:11.418Z,858.40
2018-12-06T12:09:11.289Z,858.35
2018-12-06T12:10:11.164Z,858.33
2018-12-06T12:11:11.037Z,858.29
2018-12-06T12:12:10.910Z,858.35
2018-12-06T12:13:10.783Z,858.33
2018-12-06T12:14:10.655Z,858.31
2018-12-06T12:15:10.528Z,858.35
2018-12-06T12:16:10.401Z,858.35
2018-12-06T12:17:10.273Z,858.33
2018-12-06T12:18:10.146Z,858.34
2018-12-06T12:19:10.020Z,858.27
2018-12-06T12:20:09.892Z,858.25
2018-12-06T12:21:09.765Z,858.26
2018-12-06T12:22:09.639Z,858.27
2018-12-06T12:23:09.513Z,858.28
2018-12-06T12:24:09.384Z,858.31
2018-12-06T12:25:09.256Z,858.24
2018-12-06T12:26:09.128Z,858.26
2018-12-06T12:27:09.002Z,858.23